Morro Bay, CA

1:55 PM PDT on October 24, 2014 (GMT -0700)
Santa Maria Public Airport / Captain G. Allan Hancock Field | Change Station
CLOSE
Current Station
Airport
Location: Santa Maria,
Elevation: 240 ft
Nearby Weather Stations

Elev 240 ft 34.90 °N, 120.45 °W | Updated 4 minutes ago

Clear
Clear
75 °F
Feels Like 75 °F
N
13
Wind Variable Wind from WNW

Today
High -- | Low -- °F
--% Chance of Precip.
Yesterday
High -- | Low -- °F
Precip. -- in
7:17 AM 6:16 PM
New Moon, 1% visible
Pressure 29.95 in
Visibility 10.0 miles
Clouds Clear
Dew Point 55 °F
Humidity 50%
Rainfall 0.00 in
Snow Depth Not available.
UV 5 out of 12
Pollen 4.10 out of 12
Air Quality Not available.
Flu Activity Sporadic
METAR KSMX 242051Z 30011KT 10SM CLR 24/13 A2994 RMK AO2 SLP141 T02390128 57020

More Conditions Fewer Conditions

Pressure 29.95 in
Visibility 10.0 miles
Clouds Clear
Dew Point 55 °F
Humidity 50%
Rainfall 0.00 in
Snow Depth Not available.
UV 5 out of 12
Pollen 4.10 out of 12
Air Quality Not available.
Flu Activity Sporadic
METAR KSMX 242051Z 30011KT 10SM CLR 24/13 A2994 RMK AO2 SLP141 T02390128 57020

More Conditions Fewer Conditions

10-Day Weather Forecast

Almanac

Astronomy

Oct. 24, 2014 Rise Set
Actual Time 7:17 AM PDT 6:16 PM PDT
Civil Twilight 6:51 AM PDT 6:42 PM PDT
Nautical Twilight 6:21 AM PDT 7:12 PM PDT
Astronomical Twilight 5:52 AM PDT 7:42 PM PDT
Moon 8:00 AM PDT 7:02 PM PDT
Length of Visible Light 11h 51m
Length of Day
10h 59m
Tomorrow will be 2m 2s shorter.
New Moon, 1% of the Moon is Illuminated
Today
New Moon
Oct 30
First Quarter
Nov 6
Full
Nov 14
Last Quarter
Nov 22
New

Today's Extremes

State Highs State Lows

Community

WunderPhotos

Upload Photos

1,764,654 photos uploaded!

Nearby

Snow Depth

Station Depth Elevation
Virginia Lakes Ridge 0 in 9200 ft
Leavitt Meadows 0 in 7200 ft
Summit Meadow 0 in 9122 ft
Echo Peak 0 in 7800 ft
Rubicon #2 0 in 7500 ft

Earthquake Activity

City Distance Mag. Time & Date
Solvang, California 77 miles 2.6 5:35 PM PDT
2014-10-22
Kettleman City, California 67 miles 2.5 9:08 AM PDT
2014-10-22
Minimum magnitude displayed is 2.5.

Coastal Water Temperatures

Place Temperature
No Stations Reporting

Nearby Weather Stations